Аэропорт: Гродно. Гродно

ICAO: UMMG

METAR:
2022-06-26 12:00:00
UMMG 261200Z 16005MPS 9999 BKN033 29/14 Q1019 NOSIG
METAR:
2022-06-26 11:07:00
TAF UMMG 261107Z 2612/2621 13003MPS 9999 BKN025 TEMPO 2612/2618 09004G09MPS